sensor_id;sensor_type;location;lat;lon;timestamp;pressure;altitude;pressure_sealevel;temperature;humidity
5814;BME280;2933;52.302;8.134;2022-08-21T00:03:23;100798.50;;;15.47;85.91
5814;BME280;2933;52.302;8.134;2022-08-21T00:08:24;100798.72;;;15.44;87.04
5814;BME280;2933;52.302;8.134;2022-08-21T00:13:26;100791.09;;;15.52;87.55
5814;BME280;2933;52.302;8.134;2022-08-21T00:18:29;100789.53;;;15.49;88.95
5814;BME280;2933;52.302;8.134;2022-08-21T00:23:33;100782.50;;;15.73;86.53
5814;BME280;2933;52.302;8.134;2022-08-21T00:28:35;100792.19;;;15.61;87.13
5814;BME280;2933;52.302;8.134;2022-08-21T00:33:38;100789.28;;;15.64;86.84
5814;BME280;2933;52.302;8.134;2022-08-21T00:38:40;100772.66;;;15.75;86.45
5814;BME280;2933;52.302;8.134;2022-08-21T00:43:42;100784.03;;;16.09;85.41
5814;BME280;2933;52.302;8.134;2022-08-21T00:48:45;100772.56;;;15.99;85.48
5814;BME280;2933;52.302;8.134;2022-08-21T00:53:46;100771.59;;;15.89;85.96
5814;BME280;2933;52.302;8.134;2022-08-21T00:58:48;100759.00;;;15.81;85.57
5814;BME280;2933;52.302;8.134;2022-08-21T01:03:51;100761.41;;;15.61;86.10
5814;BME280;2933;52.302;8.134;2022-08-21T01:08:53;100752.28;;;15.43;86.70
5814;BME280;2933;52.302;8.134;2022-08-21T01:13:54;100775.03;;;15.55;87.21
5814;BME280;2933;52.302;8.134;2022-08-21T01:18:57;100756.72;;;15.42;88.21
5814;BME280;2933;52.302;8.134;2022-08-21T01:24:01;100780.34;;;15.66;87.70
5814;BME280;2933;52.302;8.134;2022-08-21T01:29:07;100759.03;;;15.70;87.54
5814;BME280;2933;52.302;8.134;2022-08-21T01:34:10;100756.16;;;15.73;86.28
5814;BME280;2933;52.302;8.134;2022-08-21T01:39:14;100766.09;;;15.58;86.57
5814;BME280;2933;52.302;8.134;2022-08-21T01:44:15;100777.94;;;15.75;86.01
5814;BME280;2933;52.302;8.134;2022-08-21T01:49:17;100770.03;;;15.52;87.76
5814;BME280;2933;52.302;8.134;2022-08-21T01:54:20;100766.78;;;15.48;88.89
5814;BME280;2933;52.302;8.134;2022-08-21T01:59:23;100767.25;;;15.31;89.88
5814;BME280;2933;52.302;8.134;2022-08-21T02:04:25;100763.47;;;15.58;88.15
5814;BME280;2933;52.302;8.134;2022-08-21T02:09:28;100760.81;;;15.58;86.76
5814;BME280;2933;52.302;8.134;2022-08-21T02:14:29;100767.47;;;15.28;88.04
5814;BME280;2933;52.302;8.134;2022-08-21T02:19:31;100760.19;;;15.43;88.60
5814;BME280;2933;52.302;8.134;2022-08-21T02:24:35;100749.31;;;15.36;88.53
5814;BME280;2933;52.302;8.134;2022-08-21T02:29:36;100762.25;;;15.50;88.23
5814;BME280;2933;52.302;8.134;2022-08-21T02:34:38;100755.31;;;15.38;89.24
5814;BME280;2933;52.302;8.134;2022-08-21T02:39:41;100749.66;;;15.20;89.96
5814;BME280;2933;52.302;8.134;2022-08-21T02:44:42;100755.75;;;15.21;90.31
5814;BME280;2933;52.302;8.134;2022-08-21T02:49:44;100758.34;;;15.09;90.69
5814;BME280;2933;52.302;8.134;2022-08-21T02:54:47;100752.41;;;15.18;90.31
5814;BME280;2933;52.302;8.134;2022-08-21T02:59:49;100734.31;;;15.14;90.46
5814;BME280;2933;52.302;8.134;2022-08-21T03:04:50;100753.03;;;15.33;89.62
5814;BME280;2933;52.302;8.134;2022-08-21T03:09:53;100745.78;;;15.13;91.15
5814;BME280;2933;52.302;8.134;2022-08-21T03:14:55;100733.16;;;15.18;90.98
5814;BME280;2933;52.302;8.134;2022-08-21T03:19:57;100717.56;;;15.03;90.75
5814;BME280;2933;52.302;8.134;2022-08-21T03:25:00;100713.63;;;15.09;89.88
5814;BME280;2933;52.302;8.134;2022-08-21T03:30:02;100738.28;;;15.08;90.34
5814;BME280;2933;52.302;8.134;2022-08-21T03:35:05;100732.94;;;14.85;90.70
5814;BME280;2933;52.302;8.134;2022-08-21T03:40:09;100731.34;;;14.72;91.12
5814;BME280;2933;52.302;8.134;2022-08-21T03:45:11;100742.13;;;14.80;90.22
5814;BME280;2933;52.302;8.134;2022-08-21T03:50:13;100742.31;;;14.65;90.94
5814;BME280;2933;52.302;8.134;2022-08-21T03:55:17;100732.91;;;14.50;91.62
5814;BME280;2933;52.302;8.134;2022-08-21T04:00:20;100738.06;;;14.51;90.87
5814;BME280;2933;52.302;8.134;2022-08-21T04:05:22;100719.50;;;14.42;88.94
5814;BME280;2933;52.302;8.134;2022-08-21T04:10:33;100746.28;;;14.47;88.81
5814;BME280;2933;52.302;8.134;2022-08-21T04:15:36;100753.94;;;14.50;88.83
5814;BME280;2933;52.302;8.134;2022-08-21T04:20:38;100742.97;;;14.32;88.95
5814;BME280;2933;52.302;8.134;2022-08-21T04:25:41;100752.25;;;14.25;88.98
5814;BME280;2933;52.302;8.134;2022-08-21T04:30:44;100746.41;;;14.08;90.33
5814;BME280;2933;52.302;8.134;2022-08-21T04:35:45;100750.34;;;14.27;89.54
5814;BME280;2933;52.302;8.134;2022-08-21T04:40:49;100762.22;;;14.32;89.58
5814;BME280;2933;52.302;8.134;2022-08-21T04:45:52;100749.16;;;14.06;90.26
5814;BME280;2933;52.302;8.134;2022-08-21T04:50:56;100737.28;;;13.77;91.29
5814;BME280;2933;52.302;8.134;2022-08-21T04:56:04;100768.22;;;13.84;91.41
5814;BME280;2933;52.302;8.134;2022-08-21T05:01:12;100771.44;;;14.01;91.42
5814;BME280;2933;52.302;8.134;2022-08-21T05:06:16;100743.84;;;13.95;91.68
5814;BME280;2933;52.302;8.134;2022-08-21T05:11:19;100740.28;;;13.83;92.10
5814;BME280;2933;52.302;8.134;2022-08-21T05:16:22;100756.19;;;14.06;92.28
5814;BME280;2933;52.302;8.134;2022-08-21T05:21:23;100772.09;;;14.53;90.89
5814;BME280;2933;52.302;8.134;2022-08-21T05:26:26;100770.59;;;14.62;89.61
5814;BME280;2933;52.302;8.134;2022-08-21T05:31:28;100778.69;;;14.72;90.32
5814;BME280;2933;52.302;8.134;2022-08-21T05:36:30;100784.75;;;14.96;89.95
5814;BME280;2933;52.302;8.134;2022-08-21T05:41:33;100781.34;;;15.18;89.52
5814;BME280;2933;52.302;8.134;2022-08-21T05:46:34;100786.63;;;15.41;88.60
5814;BME280;2933;52.302;8.134;2022-08-21T05:51:36;100775.16;;;15.42;88.83
5814;BME280;2933;52.302;8.134;2022-08-21T05:56:39;100778.06;;;15.50;88.60
5814;BME280;2933;52.302;8.134;2022-08-21T06:01:44;100779.38;;;15.79;88.21
5814;BME280;2933;52.302;8.134;2022-08-21T06:06:46;100788.88;;;15.93;87.50
5814;BME280;2933;52.302;8.134;2022-08-21T06:11:50;100795.75;;;16.28;85.25
5814;BME280;2933;52.302;8.134;2022-08-21T06:16:51;100783.56;;;16.59;84.03
5814;BME280;2933;52.302;8.134;2022-08-21T06:21:53;100757.84;;;16.73;83.54
5814;BME280;2933;52.302;8.134;2022-08-21T06:26:56;100784.88;;;17.19;82.32
5814;BME280;2933;52.302;8.134;2022-08-21T06:31:58;100787.84;;;17.56;81.23
5814;BME280;2933;52.302;8.134;2022-08-21T06:36:59;100789.19;;;17.72;79.57
5814;BME280;2933;52.302;8.134;2022-08-21T06:42:02;100784.88;;;18.02;78.10
5814;BME280;2933;52.302;8.134;2022-08-21T06:47:04;100787.41;;;18.23;77.83
5814;BME280;2933;52.302;8.134;2022-08-21T06:52:08;100788.00;;;18.36;76.99
5814;BME280;2933;52.302;8.134;2022-08-21T06:57:12;100785.09;;;18.49;73.74
5814;BME280;2933;52.302;8.134;2022-08-21T07:02:14;100788.56;;;18.60;71.52
5814;BME280;2933;52.302;8.134;2022-08-21T07:07:15;100783.44;;;18.78;71.56
5814;BME280;2933;52.302;8.134;2022-08-21T07:12:19;100781.06;;;18.94;71.15
5814;BME280;2933;52.302;8.134;2022-08-21T07:17:21;100780.25;;;19.03;69.80
5814;BME280;2933;52.302;8.134;2022-08-21T07:22:22;100783.84;;;19.22;67.50
5814;BME280;2933;52.302;8.134;2022-08-21T07:27:25;100780.34;;;19.12;61.84
5814;BME280;2933;52.302;8.134;2022-08-21T07:32:27;100774.88;;;19.23;63.47
5814;BME280;2933;52.302;8.134;2022-08-21T07:37:29;100773.75;;;19.26;62.97
5814;BME280;2933;52.302;8.134;2022-08-21T07:42:32;100769.75;;;19.59;62.61
5814;BME280;2933;52.302;8.134;2022-08-21T07:47:34;100752.06;;;19.60;60.97
5814;BME280;2933;52.302;8.134;2022-08-21T07:52:35;100769.44;;;19.72;59.59
5814;BME280;2933;52.302;8.134;2022-08-21T07:57:38;100772.75;;;19.74;59.97
5814;BME280;2933;52.302;8.134;2022-08-21T08:02:40;100768.19;;;20.04;59.38
5814;BME280;2933;52.302;8.134;2022-08-21T08:07:42;100768.53;;;20.19;59.80
5814;BME280;2933;52.302;8.134;2022-08-21T08:12:45;100772.16;;;20.36;58.70
5814;BME280;2933;52.302;8.134;2022-08-21T08:17:47;100766.47;;;20.31;57.76
5814;BME280;2933;52.302;8.134;2022-08-21T08:22:49;100764.22;;;20.54;59.83
5814;BME280;2933;52.302;8.134;2022-08-21T08:27:52;100764.38;;;20.53;56.31
5814;BME280;2933;52.302;8.134;2022-08-21T08:32:54;100760.41;;;20.39;56.89
5814;BME280;2933;52.302;8.134;2022-08-21T08:37:57;100758.97;;;20.44;56.78
5814;BME280;2933;52.302;8.134;2022-08-21T08:43:00;100755.16;;;20.65;57.38
5814;BME280;2933;52.302;8.134;2022-08-21T08:48:04;100753.38;;;20.65;56.50
5814;BME280;2933;52.302;8.134;2022-08-21T08:53:15;100748.88;;;20.66;56.72
5814;BME280;2933;52.302;8.134;2022-08-21T08:58:23;100749.44;;;20.88;56.30
5814;BME280;2933;52.302;8.134;2022-08-21T09:03:26;100745.00;;;20.96;55.59
5814;BME280;2933;52.302;8.134;2022-08-21T09:08:45;100746.97;;;20.94;55.06
5814;BME280;2933;52.302;8.134;2022-08-21T09:13:57;100746.97;;;20.94;54.97
5814;BME280;2933;52.302;8.134;2022-08-21T09:19:06;100738.63;;;21.07;55.62
5814;BME280;2933;52.302;8.134;2022-08-21T09:24:25;100744.78;;;21.42;57.51
5814;BME280;2933;52.302;8.134;2022-08-21T09:29:37;100739.19;;;21.54;56.07
5814;BME280;2933;52.302;8.134;2022-08-21T09:34:39;100723.78;;;21.66;55.25
5814;BME280;2933;52.302;8.134;2022-08-21T09:39:40;100733.13;;;21.70;55.08
5814;BME280;2933;52.302;8.134;2022-08-21T09:44:43;100732.94;;;21.63;56.10
5814;BME280;2933;52.302;8.134;2022-08-21T09:49:45;100720.22;;;21.49;56.14
5814;BME280;2933;52.302;8.134;2022-08-21T09:54:50;100720.28;;;21.22;55.51
5814;BME280;2933;52.302;8.134;2022-08-21T09:59:54;100699.75;;;20.80;56.22
5814;BME280;2933;52.302;8.134;2022-08-21T10:04:57;100707.06;;;21.39;55.13
5814;BME280;2933;52.302;8.134;2022-08-21T10:10:01;100707.97;;;22.07;54.86
5814;BME280;2933;52.302;8.134;2022-08-21T10:15:14;100707.88;;;22.50;52.09
5814;BME280;2933;52.302;8.134;2022-08-21T10:20:20;100698.56;;;22.46;53.18
5814;BME280;2933;52.302;8.134;2022-08-21T10:25:31;100693.88;;;22.48;53.21
5814;BME280;2933;52.302;8.134;2022-08-21T10:30:41;100695.84;;;22.13;52.01
5814;BME280;2933;52.302;8.134;2022-08-21T10:35:51;100683.88;;;22.17;51.45
5814;BME280;2933;52.302;8.134;2022-08-21T10:41:01;100688.38;;;22.82;51.49
5814;BME280;2933;52.302;8.134;2022-08-21T10:46:13;100685.22;;;22.79;50.17
5814;BME280;2933;52.302;8.134;2022-08-21T10:56:35;100684.06;;;22.65;50.58
5814;BME280;2933;52.302;8.134;2022-08-21T11:01:44;100680.94;;;22.53;50.74
5814;BME280;2933;52.302;8.134;2022-08-21T11:07:04;100679.91;;;22.62;49.17
5814;BME280;2933;52.302;8.134;2022-08-21T11:12:15;100659.50;;;23.11;48.73
5814;BME280;2933;52.302;8.134;2022-08-21T11:17:24;100663.59;;;23.69;48.98
5814;BME280;2933;52.302;8.134;2022-08-21T11:22:33;100673.13;;;23.95;47.35
5814;BME280;2933;52.302;8.134;2022-08-21T11:27:42;100671.81;;;23.60;45.72
5814;BME280;2933;52.302;8.134;2022-08-21T11:33:07;100670.16;;;23.11;48.08
5814;BME280;2933;52.302;8.134;2022-08-21T11:38:24;100681.50;;;23.04;46.63
5814;BME280;2933;52.302;8.134;2022-08-21T11:43:34;100683.72;;;22.92;49.13
5814;BME280;2933;52.302;8.134;2022-08-21T11:48:46;100675.31;;;23.29;48.57
5814;BME280;2933;52.302;8.134;2022-08-21T11:53:54;100679.59;;;23.38;46.27
5814;BME280;2933;52.302;8.134;2022-08-21T11:59:04;100661.47;;;23.65;44.97
5814;BME280;2933;52.302;8.134;2022-08-21T12:04:17;100673.63;;;24.22;44.99
5814;BME280;2933;52.302;8.134;2022-08-21T12:09:32;100674.72;;;24.28;44.15
5814;BME280;2933;52.302;8.134;2022-08-21T12:14:39;100668.91;;;24.71;43.51
5814;BME280;2933;52.302;8.134;2022-08-21T12:19:43;100675.69;;;24.35;42.24
5814;BME280;2933;52.302;8.134;2022-08-21T12:24:48;100664.06;;;24.28;43.34
5814;BME280;2933;52.302;8.134;2022-08-21T12:29:52;100666.94;;;24.41;41.57
5814;BME280;2933;52.302;8.134;2022-08-21T12:35:01;100664.41;;;24.63;42.44
5814;BME280;2933;52.302;8.134;2022-08-21T12:40:11;100664.59;;;24.61;41.76
5814;BME280;2933;52.302;8.134;2022-08-21T12:45:18;100662.34;;;24.73;41.78
5814;BME280;2933;52.302;8.134;2022-08-21T12:50:29;100654.34;;;24.88;39.41
5814;BME280;2933;52.302;8.134;2022-08-21T12:55:41;100665.78;;;24.82;40.92
5814;BME280;2933;52.302;8.134;2022-08-21T13:00:48;100663.09;;;25.12;40.24
5814;BME280;2933;52.302;8.134;2022-08-21T13:05:52;100657.75;;;25.12;39.67
5814;BME280;2933;52.302;8.134;2022-08-21T13:10:59;100661.25;;;25.12;38.28
5814;BME280;2933;52.302;8.134;2022-08-21T13:16:03;100664.38;;;25.01;39.66
5814;BME280;2933;52.302;8.134;2022-08-21T13:21:11;100663.09;;;24.97;38.84
5814;BME280;2933;52.302;8.134;2022-08-21T13:26:14;100657.81;;;25.33;38.75
5814;BME280;2933;52.302;8.134;2022-08-21T13:31:27;100666.97;;;25.09;37.62
5814;BME280;2933;52.302;8.134;2022-08-21T13:36:34;100653.97;;;25.06;40.00
5814;BME280;2933;52.302;8.134;2022-08-21T13:41:39;100657.22;;;25.02;40.03
5814;BME280;2933;52.302;8.134;2022-08-21T13:46:42;100655.72;;;25.14;39.79
5814;BME280;2933;52.302;8.134;2022-08-21T13:51:46;100662.91;;;25.13;39.70
5814;BME280;2933;52.302;8.134;2022-08-21T13:56:50;100660.50;;;25.04;38.69
5814;BME280;2933;52.302;8.134;2022-08-21T14:01:54;100669.06;;;24.69;40.47
5814;BME280;2933;52.302;8.134;2022-08-21T14:07:00;100672.66;;;24.76;40.22
5814;BME280;2933;52.302;8.134;2022-08-21T14:12:13;100661.25;;;24.82;40.42
5814;BME280;2933;52.302;8.134;2022-08-21T14:17:27;100666.59;;;24.82;40.61
5814;BME280;2933;52.302;8.134;2022-08-21T14:22:36;100675.91;;;24.72;40.07
5814;BME280;2933;52.302;8.134;2022-08-21T14:27:42;100681.53;;;24.53;42.12
5814;BME280;2933;52.302;8.134;2022-08-21T14:32:45;100667.13;;;24.40;38.65
5814;BME280;2933;52.302;8.134;2022-08-21T14:37:49;100667.38;;;24.30;39.62
5814;BME280;2933;52.302;8.134;2022-08-21T14:42:51;100663.25;;;24.04;40.43
5814;BME280;2933;52.302;8.134;2022-08-21T14:47:53;100679.97;;;24.21;41.48
5814;BME280;2933;52.302;8.134;2022-08-21T14:52:56;100683.75;;;24.27;40.36
5814;BME280;2933;52.302;8.134;2022-08-21T14:57:57;100667.16;;;24.16;40.79
5814;BME280;2933;52.302;8.134;2022-08-21T15:02:59;100673.00;;;24.35;39.62
5814;BME280;2933;52.302;8.134;2022-08-21T15:08:02;100673.19;;;24.33;39.91
5814;BME280;2933;52.302;8.134;2022-08-21T15:13:05;100668.19;;;24.53;40.99
5814;BME280;2933;52.302;8.134;2022-08-21T15:18:07;100666.69;;;24.51;40.32
5814;BME280;2933;52.302;8.134;2022-08-21T15:23:11;100667.31;;;24.38;40.43
5814;BME280;2933;52.302;8.134;2022-08-21T15:28:13;100667.31;;;24.38;41.78
5814;BME280;2933;52.302;8.134;2022-08-21T15:33:16;100671.53;;;24.09;42.15
5814;BME280;2933;52.302;8.134;2022-08-21T15:38:20;100675.94;;;24.02;43.06
5814;BME280;2933;52.302;8.134;2022-08-21T15:43:24;100674.19;;;24.32;43.39
5814;BME280;2933;52.302;8.134;2022-08-21T15:48:28;100665.00;;;24.35;41.61
5814;BME280;2933;52.302;8.134;2022-08-21T15:53:31;100672.19;;;24.34;39.77
5814;BME280;2933;52.302;8.134;2022-08-21T15:58:36;100648.41;;;24.01;40.85
5814;BME280;2933;52.302;8.134;2022-08-21T16:03:39;100664.53;;;24.08;40.82
5814;BME280;2933;52.302;8.134;2022-08-21T16:08:43;100658.84;;;24.11;42.32
5814;BME280;2933;52.302;8.134;2022-08-21T16:13:45;100658.19;;;24.09;42.84
5814;BME280;2933;52.302;8.134;2022-08-21T16:18:48;100655.94;;;23.98;39.89
5814;BME280;2933;52.302;8.134;2022-08-21T16:23:52;100656.94;;;23.97;41.10
5814;BME280;2933;52.302;8.134;2022-08-21T16:28:55;100657.13;;;24.18;41.88
5814;BME280;2933;52.302;8.134;2022-08-21T16:33:58;100644.66;;;23.87;41.07
5814;BME280;2933;52.302;8.134;2022-08-21T16:39:02;100650.97;;;23.63;41.15
5814;BME280;2933;52.302;8.134;2022-08-21T16:44:04;100653.25;;;23.75;41.80
5814;BME280;2933;52.302;8.134;2022-08-21T16:49:06;100653.47;;;23.65;42.05
5814;BME280;2933;52.302;8.134;2022-08-21T16:54:11;100646.09;;;23.67;42.48
5814;BME280;2933;52.302;8.134;2022-08-21T16:59:13;100652.19;;;23.84;41.67
5814;BME280;2933;52.302;8.134;2022-08-21T17:04:14;100649.63;;;23.91;40.86
5814;BME280;2933;52.302;8.134;2022-08-21T17:09:17;100646.19;;;23.82;41.98
5814;BME280;2933;52.302;8.134;2022-08-21T17:14:21;100648.72;;;23.75;42.14
5814;BME280;2933;52.302;8.134;2022-08-21T17:19:23;100647.66;;;23.84;42.95
5814;BME280;2933;52.302;8.134;2022-08-21T17:24:26;100653.06;;;23.76;43.78
5814;BME280;2933;52.302;8.134;2022-08-21T17:29:30;100652.31;;;23.59;43.01
5814;BME280;2933;52.302;8.134;2022-08-21T17:34:33;100652.59;;;23.41;43.65
5814;BME280;2933;52.302;8.134;2022-08-21T17:39:38;100648.78;;;23.35;46.30
5814;BME280;2933;52.302;8.134;2022-08-21T17:44:42;100644.81;;;23.15;45.29
5814;BME280;2933;52.302;8.134;2022-08-21T17:49:44;100650.19;;;23.06;48.49
5814;BME280;2933;52.302;8.134;2022-08-21T17:54:48;100655.41;;;22.83;50.46
5814;BME280;2933;52.302;8.134;2022-08-21T17:59:50;100658.28;;;22.65;52.27
5814;BME280;2933;52.302;8.134;2022-08-21T18:04:51;100658.94;;;22.34;53.03
5814;BME280;2933;52.302;8.134;2022-08-21T18:09:56;100655.75;;;22.14;54.07
5814;BME280;2933;52.302;8.134;2022-08-21T18:14:59;100661.25;;;22.04;53.76
5814;BME280;2933;52.302;8.134;2022-08-21T18:20:03;100663.88;;;21.79;55.83
5814;BME280;2933;52.302;8.134;2022-08-21T18:25:07;100669.78;;;21.57;57.48
5814;BME280;2933;52.302;8.134;2022-08-21T18:30:09;100672.22;;;21.15;58.40
5814;BME280;2933;52.302;8.134;2022-08-21T18:35:14;100672.59;;;20.86;59.12
5814;BME280;2933;52.302;8.134;2022-08-21T18:40:17;100676.91;;;20.69;60.11
5814;BME280;2933;52.302;8.134;2022-08-21T18:45:20;100659.31;;;20.68;60.25
5814;BME280;2933;52.302;8.134;2022-08-21T18:50:24;100682.00;;;20.62;61.50
5814;BME280;2933;52.302;8.134;2022-08-21T18:55:28;100659.81;;;20.45;62.22
5814;BME280;2933;52.302;8.134;2022-08-21T19:00:33;100660.59;;;20.20;63.60
5814;BME280;2933;52.302;8.134;2022-08-21T19:05:36;100687.94;;;20.20;63.67
5814;BME280;2933;52.302;8.134;2022-08-21T19:10:45;100687.63;;;20.05;64.01
5814;BME280;2933;52.302;8.134;2022-08-21T19:15:48;100687.19;;;19.92;64.96
5814;BME280;2933;52.302;8.134;2022-08-21T19:20:52;100698.84;;;19.99;64.94
5814;BME280;2933;52.302;8.134;2022-08-21T19:25:56;100697.09;;;19.90;65.77
5814;BME280;2933;52.302;8.134;2022-08-21T19:31:01;100690.25;;;19.59;67.21
5814;BME280;2933;52.302;8.134;2022-08-21T19:36:06;100689.28;;;19.60;66.89
5814;BME280;2933;52.302;8.134;2022-08-21T19:41:13;100703.44;;;19.51;67.19
5814;BME280;2933;52.302;8.134;2022-08-21T19:46:20;100702.91;;;19.37;68.00
5814;BME280;2933;52.302;8.134;2022-08-21T19:51:22;100711.31;;;19.23;66.51
5814;BME280;2933;52.302;8.134;2022-08-21T19:56:28;100712.84;;;19.26;66.58
5814;BME280;2933;52.302;8.134;2022-08-21T20:06:45;100714.19;;;19.02;66.94
5814;BME280;2933;52.302;8.134;2022-08-21T20:11:50;100719.19;;;19.15;66.52
5814;BME280;2933;52.302;8.134;2022-08-21T20:16:53;100720.97;;;19.14;67.08
5814;BME280;2933;52.302;8.134;2022-08-21T20:21:55;100723.97;;;18.92;67.22
5814;BME280;2933;52.302;8.134;2022-08-21T20:26:59;100708.91;;;18.82;67.48
5814;BME280;2933;52.302;8.134;2022-08-21T20:32:03;100731.47;;;18.77;68.77
5814;BME280;2933;52.302;8.134;2022-08-21T20:37:06;100717.53;;;18.84;68.55
5814;BME280;2933;52.302;8.134;2022-08-21T20:42:10;100728.41;;;18.71;69.85
5814;BME280;2933;52.302;8.134;2022-08-21T20:47:11;100722.31;;;18.61;70.08
5814;BME280;2933;52.302;8.134;2022-08-21T20:52:15;100727.03;;;18.57;70.11
5814;BME280;2933;52.302;8.134;2022-08-21T20:57:21;100726.34;;;18.46;71.11
5814;BME280;2933;52.302;8.134;2022-08-21T21:02:38;100703.66;;;18.43;70.59
5814;BME280;2933;52.302;8.134;2022-08-21T21:07:51;100720.06;;;18.47;71.10
5814;BME280;2933;52.302;8.134;2022-08-21T21:13:00;100734.13;;;18.57;71.43
5814;BME280;2933;52.302;8.134;2022-08-21T21:18:09;100734.13;;;18.18;71.90
5814;BME280;2933;52.302;8.134;2022-08-21T21:23:18;100736.78;;;18.28;71.91
5814;BME280;2933;52.302;8.134;2022-08-21T21:28:28;100719.34;;;18.05;72.89
5814;BME280;2933;52.302;8.134;2022-08-21T21:33:30;100725.59;;;18.04;73.32
5814;BME280;2933;52.302;8.134;2022-08-21T21:38:38;100720.53;;;17.82;74.42
5814;BME280;2933;52.302;8.134;2022-08-21T21:43:59;100739.88;;;17.92;74.93
5814;BME280;2933;52.302;8.134;2022-08-21T21:49:16;100743.56;;;18.11;74.59
5814;BME280;2933;52.302;8.134;2022-08-21T21:54:50;100726.84;;;18.10;74.75
5814;BME280;2933;52.302;8.134;2022-08-21T21:59:59;100743.97;;;18.16;75.23
5814;BME280;2933;52.302;8.134;2022-08-21T22:05:05;100752.63;;;18.18;75.14
5814;BME280;2933;52.302;8.134;2022-08-21T22:10:15;100743.25;;;18.04;75.23
5814;BME280;2933;52.302;8.134;2022-08-21T22:15:20;100765.00;;;18.27;75.43
5814;BME280;2933;52.302;8.134;2022-08-21T22:20:27;100754.41;;;18.17;75.71
5814;BME280;2933;52.302;8.134;2022-08-21T22:25:34;100771.25;;;18.16;75.95
5814;BME280;2933;52.302;8.134;2022-08-21T22:30:42;100768.06;;;18.13;76.16
5814;BME280;2933;52.302;8.134;2022-08-21T22:35:44;100765.94;;;17.97;76.72
5814;BME280;2933;52.302;8.134;2022-08-21T22:40:48;100766.50;;;18.00;76.38
5814;BME280;2933;52.302;8.134;2022-08-21T22:45:56;100729.41;;;17.81;76.37
5814;BME280;2933;52.302;8.134;2022-08-21T22:51:02;100761.28;;;17.89;77.29
5814;BME280;2933;52.302;8.134;2022-08-21T22:56:05;100767.88;;;17.64;77.88
5814;BME280;2933;52.302;8.134;2022-08-21T23:01:16;100765.50;;;17.70;77.96
5814;BME280;2933;52.302;8.134;2022-08-21T23:06:35;100763.81;;;17.59;78.90
5814;BME280;2933;52.302;8.134;2022-08-21T23:11:41;100767.72;;;17.65;79.19
5814;BME280;2933;52.302;8.134;2022-08-21T23:16:53;100767.00;;;17.53;79.39
5814;BME280;2933;52.302;8.134;2022-08-21T23:27:35;100761.59;;;17.34;80.69
5814;BME280;2933;52.302;8.134;2022-08-21T23:32:52;100764.59;;;17.50;79.97
5814;BME280;2933;52.302;8.134;2022-08-21T23:38:02;100774.03;;;17.43;80.45
5814;BME280;2933;52.302;8.134;2022-08-21T23:43:21;100764.16;;;17.45;79.95
5814;BME280;2933;52.302;8.134;2022-08-21T23:48:32;100778.09;;;17.26;81.22
5814;BME280;2933;52.302;8.134;2022-08-21T23:53:48;100782.22;;;17.19;81.37
5814;BME280;2933;52.302;8.134;2022-08-21T23:58:57;100768.06;;;16.99;82.04
